createdAt,value
2023-03-27T00:00:39.191Z,1000.43
2023-03-27T00:03:47.732Z,1000.40
2023-03-27T00:06:55.339Z,1000.40
2023-03-27T00:10:02.942Z,1000.51
2023-03-27T00:13:11.424Z,1000.53
2023-03-27T00:16:19.171Z,1000.60
2023-03-27T00:19:26.710Z,1000.65
2023-03-27T00:22:35.859Z,1000.74
2023-03-27T00:25:43.324Z,1000.81
2023-03-27T00:28:50.698Z,1000.89
2023-03-27T00:31:59.628Z,1000.85
2023-03-27T00:35:06.932Z,1000.96
2023-03-27T00:38:14.182Z,1001.01
2023-03-27T00:41:21.835Z,1001.07
2023-03-27T00:44:30.191Z,1001.13
2023-03-27T00:47:37.528Z,1001.14
2023-03-27T00:50:45.219Z,1001.20
2023-03-27T00:53:53.730Z,1001.30
2023-03-27T00:57:01.528Z,1001.33
2023-03-27T01:00:09.552Z,1001.31
2023-03-27T01:03:18.059Z,1001.39
2023-03-27T01:06:25.701Z,1001.41
2023-03-27T01:09:33.335Z,1001.49
2023-03-27T01:12:42.030Z,1001.55
2023-03-27T01:15:49.481Z,1001.67
2023-03-27T01:18:56.730Z,1001.77
2023-03-27T01:22:04.375Z,1001.74
2023-03-27T01:25:13.114Z,1001.73
2023-03-27T01:28:20.318Z,1001.79
2023-03-27T01:31:28.052Z,1001.87
2023-03-27T01:34:36.482Z,1001.93
2023-03-27T01:37:43.929Z,1001.95
2023-03-27T01:40:51.612Z,1002.01
2023-03-27T01:44:00.052Z,1002.10
2023-03-27T01:47:07.710Z,1002.11
2023-03-27T01:50:15.375Z,1002.09
2023-03-27T01:53:24.111Z,1002.26
2023-03-27T01:56:31.391Z,1002.24
2023-03-27T01:59:38.979Z,1002.31
2023-03-27T02:02:46.546Z,1002.42
2023-03-27T02:05:55.195Z,1002.47
2023-03-27T02:09:02.559Z,1002.50
2023-03-27T02:12:10.375Z,1002.58
2023-03-27T02:15:24.510Z,1002.54
2023-03-27T02:18:22.980Z,1002.62
2023-03-27T02:21:30.658Z,1002.73
2023-03-27T02:24:39.376Z,1002.71
2023-03-27T02:27:46.624Z,1002.84
2023-03-27T02:31:06.574Z,1002.84
2023-03-27T02:33:59.679Z,1002.92
2023-03-27T02:37:07.422Z,1002.92
2023-03-27T02:40:14.844Z,1002.98
2023-03-27T02:43:23.565Z,1003.12
2023-03-27T02:46:31.058Z,1003.12
2023-03-27T02:49:38.512Z,1003.11
2023-03-27T02:52:45.693Z,1003.21
2023-03-27T02:55:54.509Z,1003.19
2023-03-27T02:59:02.105Z,1003.21
2023-03-27T03:02:09.420Z,1003.35
2023-03-27T03:05:18.044Z,1003.36
2023-03-27T03:08:25.696Z,1003.48
2023-03-27T03:11:33.017Z,1003.50
2023-03-27T03:14:41.877Z,1003.65
2023-03-27T03:17:49.359Z,1003.68
2023-03-27T03:20:56.957Z,1003.67
2023-03-27T03:24:05.751Z,1003.70
2023-03-27T03:27:12.871Z,1003.75
2023-03-27T03:30:20.504Z,1003.79
2023-03-27T03:33:28.105Z,1003.87
2023-03-27T03:36:36.596Z,1003.91
2023-03-27T03:39:44.334Z,1003.97
2023-03-27T03:42:52.010Z,1004.02
2023-03-27T03:46:00.420Z,1003.99
2023-03-27T03:49:07.669Z,1004.09
2023-03-27T03:52:15.036Z,1004.09
2023-03-27T03:55:23.642Z,1004.14
2023-03-27T03:58:34.525Z,1004.22
2023-03-27T04:01:31.786Z,1004.30
2023-03-27T04:04:40.692Z,1004.23
2023-03-27T04:07:48.321Z,1004.37
2023-03-27T04:10:56.042Z,1004.42
2023-03-27T04:14:03.344Z,1004.54
2023-03-27T04:17:12.219Z,1004.63
2023-03-27T04:20:20.250Z,1004.60
2023-03-27T04:23:27.557Z,1004.64
2023-03-27T04:26:36.418Z,1004.69
2023-03-27T04:29:44.362Z,1004.70
2023-03-27T04:32:51.798Z,1004.75
2023-03-27T04:36:06.360Z,1004.75
2023-03-27T04:39:03.566Z,1004.80
2023-03-27T04:42:10.689Z,1004.76
2023-03-27T04:45:20.052Z,1004.72
2023-03-27T04:48:27.882Z,1004.76
2023-03-27T04:51:34.936Z,1004.88
2023-03-27T04:54:42.657Z,1004.96
2023-03-27T04:57:51.640Z,1004.95
2023-03-27T05:00:58.812Z,1004.97
2023-03-27T05:04:06.802Z,1005.02
2023-03-27T05:07:15.943Z,1005.10
2023-03-27T05:10:23.377Z,1005.03
2023-03-27T05:13:30.551Z,1005.14
2023-03-27T05:16:39.375Z,1005.13
2023-03-27T05:19:46.358Z,1005.22
2023-03-27T05:22:53.743Z,1005.18
2023-03-27T05:26:02.537Z,1005.28
2023-03-27T05:29:10.072Z,1005.34
2023-03-27T05:32:16.960Z,1005.40
2023-03-27T05:35:24.890Z,1005.52
2023-03-27T05:38:34.067Z,1005.50
2023-03-27T05:41:40.976Z,1005.52
2023-03-27T05:44:48.966Z,1005.57
2023-03-27T05:47:57.779Z,1005.61
2023-03-27T05:51:05.167Z,1005.64
2023-03-27T05:54:13.016Z,1005.68
2023-03-27T05:57:21.992Z,1005.73
2023-03-27T06:00:29.198Z,1005.72
2023-03-27T06:03:37.271Z,1005.80
2023-03-27T06:06:46.181Z,1005.82
2023-03-27T06:09:53.462Z,1005.83
2023-03-27T06:13:00.485Z,1005.74
2023-03-27T06:16:08.210Z,1005.77
2023-03-27T06:19:16.940Z,1005.86
2023-03-27T06:22:24.164Z,1005.98
2023-03-27T06:25:31.780Z,1005.97
2023-03-27T06:28:40.649Z,1006.00
2023-03-27T06:31:47.606Z,1006.10
2023-03-27T06:34:55.269Z,1005.99
2023-03-27T06:38:04.046Z,1006.21
2023-03-27T06:41:11.445Z,1006.20
2023-03-27T06:44:19.289Z,1006.19
2023-03-27T06:47:27.775Z,1006.14
2023-03-27T06:50:35.681Z,1006.25
2023-03-27T06:53:43.704Z,1006.28
2023-03-27T06:56:52.541Z,1006.29
2023-03-27T07:00:02.083Z,1006.38
2023-03-27T07:03:09.834Z,1006.34
2023-03-27T07:06:17.480Z,1006.46
2023-03-27T07:09:26.456Z,1006.55
2023-03-27T07:12:33.792Z,1006.56
2023-03-27T07:15:41.413Z,1006.67
2023-03-27T07:18:50.154Z,1006.66
2023-03-27T07:21:57.488Z,1006.66
2023-03-27T07:25:05.002Z,1006.72
2023-03-27T07:28:13.370Z,1006.73
2023-03-27T07:31:33.115Z,1006.74
2023-03-27T07:34:25.944Z,1006.74
2023-03-27T07:37:35.227Z,1006.87
2023-03-27T07:40:44.007Z,1006.78
2023-03-27T07:43:51.532Z,1006.80
2023-03-27T07:46:58.467Z,1006.85
2023-03-27T07:50:07.660Z,1006.88
2023-03-27T07:53:33.828Z,1007.01
2023-03-27T07:56:19.491Z,1007.08
2023-03-27T07:59:28.235Z,1007.07
2023-03-27T08:02:35.648Z,1007.07
2023-03-27T08:05:43.565Z,1006.99
2023-03-27T08:08:52.449Z,1007.01
2023-03-27T08:11:59.993Z,1007.06
2023-03-27T08:15:07.615Z,1007.08
2023-03-27T08:18:15.970Z,1007.14
2023-03-27T08:21:23.538Z,1007.22
2023-03-27T08:24:31.062Z,1007.22
2023-03-27T08:27:38.034Z,1007.24
2023-03-27T08:30:47.266Z,1007.21
2023-03-27T08:33:55.182Z,1007.14
2023-03-27T08:37:02.111Z,1007.19
2023-03-27T08:40:11.190Z,1007.25
2023-03-27T08:43:18.717Z,1007.29
2023-03-27T08:46:26.341Z,1007.33
2023-03-27T08:49:35.254Z,1007.34
2023-03-27T08:52:42.500Z,1007.42
2023-03-27T08:55:49.898Z,1007.39
2023-03-27T08:58:59.119Z,1007.43
2023-03-27T09:02:06.390Z,1007.50
2023-03-27T09:05:13.814Z,1007.37
2023-03-27T09:08:22.476Z,1007.44
2023-03-27T09:11:30.168Z,1007.40
2023-03-27T09:14:37.404Z,1007.40
2023-03-27T09:17:44.685Z,1007.53
2023-03-27T09:20:53.690Z,1007.36
2023-03-27T09:24:00.957Z,1007.44
2023-03-27T09:27:08.224Z,1007.48
2023-03-27T09:30:17.331Z,1007.46
2023-03-27T09:33:17.917Z,1007.46
2023-03-27T09:36:25.502Z,1007.48
2023-03-27T09:39:33.100Z,1007.51
2023-03-27T09:42:40.155Z,1007.39
2023-03-27T09:45:49.141Z,1007.44
2023-03-27T09:48:56.771Z,1007.37
2023-03-27T09:52:03.730Z,1007.51
2023-03-27T09:55:12.643Z,1007.45
2023-03-27T09:58:19.965Z,1007.48
2023-03-27T10:01:27.410Z,1007.41
2023-03-27T10:04:36.393Z,1007.40
2023-03-27T10:07:43.697Z,1007.35
2023-03-27T10:10:51.046Z,1007.36
2023-03-27T10:13:58.325Z,1007.30
2023-03-27T10:17:07.612Z,1007.27
2023-03-27T10:20:14.844Z,1007.22
2023-03-27T10:23:21.809Z,1007.56
2023-03-27T10:26:30.750Z,1007.35
2023-03-27T10:29:40.620Z,1007.68
2023-03-27T10:32:48.317Z,1007.88
2023-03-27T10:35:57.277Z,1007.93
2023-03-27T10:39:04.193Z,1008.24
2023-03-27T10:42:11.563Z,1008.17
2023-03-27T10:45:20.697Z,1008.25
2023-03-27T10:48:28.174Z,1008.21
2023-03-27T10:51:45.045Z,1008.17
2023-03-27T10:54:40.077Z,1008.27
2023-03-27T10:57:49.251Z,1008.33
2023-03-27T11:00:56.836Z,1008.17
2023-03-27T11:04:04.302Z,1008.32
2023-03-27T11:07:14.879Z,1008.11
2023-03-27T11:10:23.261Z,1008.14
2023-03-27T11:13:31.145Z,1008.11
2023-03-27T11:16:40.316Z,1008.19
2023-03-27T11:19:47.321Z,1008.24
2023-03-27T11:22:55.109Z,1008.33
2023-03-27T11:26:04.147Z,1008.23
2023-03-27T11:29:11.104Z,1008.16
2023-03-27T11:32:18.769Z,1008.12
2023-03-27T11:35:27.389Z,1008.25
2023-03-27T11:38:34.672Z,1008.24
2023-03-27T11:41:42.309Z,1008.27
2023-03-27T11:44:49.617Z,1008.46
2023-03-27T11:47:58.349Z,1008.83
2023-03-27T11:51:06.196Z,1008.84
2023-03-27T11:54:13.529Z,1008.93
2023-03-27T11:57:22.418Z,1009.02
2023-03-27T12:00:29.582Z,1008.99
2023-03-27T12:03:37.492Z,1008.92
2023-03-27T12:06:46.158Z,1008.86
2023-03-27T12:09:53.544Z,1008.78
2023-03-27T12:13:01.234Z,1008.80
2023-03-27T12:16:10.181Z,1008.88
2023-03-27T12:19:28.354Z,1008.81
2023-03-27T12:22:24.408Z,1008.81
2023-03-27T12:25:32.768Z,1008.89
2023-03-27T12:28:32.492Z,1008.85
2023-03-27T12:31:40.368Z,1008.79
2023-03-27T12:34:47.464Z,1008.74
2023-03-27T12:37:56.643Z,1008.79
2023-03-27T12:41:04.306Z,1008.81
2023-03-27T12:44:11.905Z,1008.78
2023-03-27T12:47:20.683Z,1008.84
2023-03-27T12:50:27.987Z,1008.79
2023-03-27T12:53:35.121Z,1008.85
2023-03-27T12:56:43.884Z,1008.76
2023-03-27T12:59:51.447Z,1008.73
2023-03-27T13:02:59.096Z,1008.73
2023-03-27T13:06:05.967Z,1008.66
2023-03-27T13:09:15.196Z,1008.70
2023-03-27T13:12:22.234Z,1008.66
2023-03-27T13:15:29.915Z,1008.93
2023-03-27T13:18:39.034Z,1009.30
2023-03-27T13:21:45.911Z,1009.91
2023-03-27T13:24:53.556Z,1009.76
2023-03-27T13:28:02.691Z,1009.87
2023-03-27T13:31:09.784Z,1009.79
2023-03-27T13:34:17.485Z,1009.96
2023-03-27T13:37:36.934Z,1009.91
2023-03-27T13:40:32.123Z,1009.80
2023-03-27T13:43:39.420Z,1009.81
2023-03-27T13:46:46.909Z,1009.59
2023-03-27T13:49:56.566Z,1009.59
2023-03-27T13:53:04.348Z,1009.50
2023-03-27T13:56:11.739Z,1009.38
2023-03-27T13:59:21.183Z,1009.44
2023-03-27T14:02:29.393Z,1009.29
2023-03-27T14:05:37.310Z,1009.21
2023-03-27T14:08:46.505Z,1009.20
2023-03-27T14:11:53.597Z,1009.15
2023-03-27T14:15:01.271Z,1009.15
2023-03-27T14:18:10.597Z,1009.14
2023-03-27T14:21:27.636Z,1009.28
2023-03-27T14:24:22.985Z,1009.23
2023-03-27T14:27:32.028Z,1009.33
2023-03-27T14:30:39.149Z,1009.33
2023-03-27T14:33:46.919Z,1009.31
2023-03-27T14:36:54.659Z,1009.31
2023-03-27T14:40:03.245Z,1009.38
2023-03-27T14:43:10.844Z,1009.56
2023-03-27T14:46:18.188Z,1009.50
2023-03-27T14:49:26.841Z,1009.64
2023-03-27T14:52:34.562Z,1009.73
2023-03-27T14:55:41.819Z,1009.76
2023-03-27T14:58:50.625Z,1009.81
2023-03-27T15:01:58.069Z,1009.77
2023-03-27T15:05:05.860Z,1009.77
2023-03-27T15:08:14.640Z,1009.59
2023-03-27T15:11:22.418Z,1009.65
2023-03-27T15:14:29.889Z,1009.66
2023-03-27T15:17:37.169Z,1009.62
2023-03-27T15:20:46.324Z,1009.65
2023-03-27T15:23:53.853Z,1009.60
2023-03-27T15:27:01.404Z,1009.63
2023-03-27T15:30:10.276Z,1009.65
2023-03-27T15:33:17.601Z,1009.55
2023-03-27T15:36:25.086Z,1009.63
2023-03-27T15:39:34.460Z,1009.84
2023-03-27T15:42:41.387Z,1009.85
2023-03-27T15:45:49.295Z,1009.87
2023-03-27T15:48:58.348Z,1009.84
2023-03-27T15:52:05.418Z,1009.84
2023-03-27T15:55:12.996Z,1009.84
2023-03-27T15:58:20.707Z,1009.89
2023-03-27T16:01:29.310Z,1009.90
2023-03-27T16:04:36.874Z,1009.95
2023-03-27T16:07:44.784Z,1010.01
2023-03-27T16:10:53.594Z,1010.00
2023-03-27T16:14:01.272Z,1010.01
2023-03-27T16:17:08.469Z,1009.95
2023-03-27T16:20:17.643Z,1009.93
2023-03-27T16:23:24.905Z,1009.91
2023-03-27T16:26:32.218Z,1009.94
2023-03-27T16:29:41.173Z,1009.90
2023-03-27T16:32:48.655Z,1009.99
2023-03-27T16:35:56.589Z,1009.96
2023-03-27T16:39:04.100Z,1010.08
2023-03-27T16:42:12.550Z,1010.04
2023-03-27T16:45:19.893Z,1010.07
2023-03-27T16:48:27.494Z,1009.98
2023-03-27T16:51:35.955Z,1010.08
2023-03-27T16:54:43.838Z,1010.15
2023-03-27T16:57:51.275Z,1010.29
2023-03-27T17:01:00.001Z,1010.18
2023-03-27T17:04:07.565Z,1010.21
2023-03-27T17:07:14.830Z,1010.25
2023-03-27T17:10:23.727Z,1010.24
2023-03-27T17:13:31.175Z,1010.30
2023-03-27T17:16:38.829Z,1010.29
2023-03-27T17:19:47.610Z,1010.32
2023-03-27T17:22:55.068Z,1010.52
2023-03-27T17:26:02.889Z,1010.56
2023-03-27T17:29:09.813Z,1010.63
2023-03-27T17:32:18.533Z,1010.58
2023-03-27T17:35:27.330Z,1010.65
2023-03-27T17:38:34.364Z,1010.69
2023-03-27T17:41:43.100Z,1010.71
2023-03-27T17:44:50.998Z,1010.79
2023-03-27T17:47:58.358Z,1010.85
2023-03-27T17:51:09.658Z,1010.88
2023-03-27T17:54:17.859Z,1010.88
2023-03-27T17:57:25.454Z,1010.81
2023-03-27T18:00:34.127Z,1010.89
2023-03-27T18:03:41.624Z,1011.00
2023-03-27T18:06:49.019Z,1010.97
2023-03-27T18:09:56.686Z,1011.01
2023-03-27T18:13:05.498Z,1011.03
2023-03-27T18:16:13.447Z,1011.09
2023-03-27T18:19:20.828Z,1011.11
2023-03-27T18:22:29.512Z,1011.09
2023-03-27T18:25:36.913Z,1011.09
2023-03-27T18:28:44.752Z,1011.15
2023-03-27T18:31:53.951Z,1011.17
2023-03-27T18:35:01.825Z,1011.19
2023-03-27T18:38:09.038Z,1011.23
2023-03-27T18:41:17.749Z,1011.29
2023-03-27T18:44:26.989Z,1011.24
2023-03-27T18:47:34.198Z,1011.34
2023-03-27T18:50:41.570Z,1011.36
2023-03-27T18:53:50.719Z,1011.37
2023-03-27T18:56:57.806Z,1011.44
2023-03-27T19:00:05.585Z,1011.45
2023-03-27T19:03:14.508Z,1011.62
2023-03-27T19:06:21.897Z,1011.50
2023-03-27T19:09:40.706Z,1011.54
2023-03-27T19:12:37.002Z,1011.47
2023-03-27T19:15:44.221Z,1011.69
2023-03-27T19:18:51.847Z,1011.69
2023-03-27T19:22:00.786Z,1011.52
2023-03-27T19:25:08.111Z,1011.56
2023-03-27T19:28:15.129Z,1011.64
2023-03-27T19:31:23.119Z,1011.67
2023-03-27T19:34:41.975Z,1011.67
2023-03-27T19:37:36.685Z,1011.66
2023-03-27T19:40:44.599Z,1011.68
2023-03-27T19:43:53.953Z,1011.71
2023-03-27T19:47:01.097Z,1011.73
2023-03-27T19:50:08.885Z,1011.74
2023-03-27T19:53:17.762Z,1011.73
2023-03-27T19:56:24.952Z,1011.76
2023-03-27T19:59:32.890Z,1011.80
2023-03-27T20:02:42.280Z,1011.76
2023-03-27T20:05:49.325Z,1011.75
2023-03-27T20:08:56.933Z,1011.75
2023-03-27T20:12:05.468Z,1011.78
2023-03-27T20:15:12.846Z,1011.77
2023-03-27T20:18:20.735Z,1011.87
2023-03-27T20:21:27.919Z,1011.85
2023-03-27T20:24:37.272Z,1011.75
2023-03-27T20:27:45.131Z,1011.86
2023-03-27T20:30:52.321Z,1011.81
2023-03-27T20:34:01.606Z,1011.72
2023-03-27T20:37:08.928Z,1011.77
2023-03-27T20:40:17.416Z,1011.76
2023-03-27T20:43:26.280Z,1011.71
2023-03-27T20:46:33.788Z,1011.71
2023-03-27T20:49:41.849Z,1011.70
2023-03-27T20:52:50.537Z,1011.69
2023-03-27T20:56:00.139Z,1011.68
2023-03-27T20:59:07.894Z,1011.78
2023-03-27T21:02:15.448Z,1011.84
2023-03-27T21:05:24.154Z,1011.82
2023-03-27T21:08:31.948Z,1011.81
2023-03-27T21:11:39.424Z,1011.86
2023-03-27T21:14:48.264Z,1011.81
2023-03-27T21:17:56.220Z,1011.77
2023-03-27T21:21:03.211Z,1011.78
2023-03-27T21:24:12.036Z,1011.73
2023-03-27T21:27:19.840Z,1011.81
2023-03-27T21:30:46.771Z,1011.75
2023-03-27T21:33:33.205Z,1011.77
2023-03-27T21:36:40.947Z,1011.78
2023-03-27T21:39:47.954Z,1011.81
2023-03-27T21:42:55.601Z,1011.84
2023-03-27T21:46:05.039Z,1011.82
2023-03-27T21:49:12.129Z,1011.73
2023-03-27T21:52:20.163Z,1011.77
2023-03-27T21:55:29.702Z,1011.70
2023-03-27T21:58:36.991Z,1011.87
2023-03-27T22:01:44.558Z,1011.85
2023-03-27T22:04:53.189Z,1011.85
2023-03-27T22:08:00.565Z,1011.86
2023-03-27T22:11:08.025Z,1011.85
2023-03-27T22:14:16.832Z,1011.91
2023-03-27T22:17:24.702Z,1011.87
2023-03-27T22:20:32.334Z,1011.96
2023-03-27T22:23:40.959Z,1011.98
2023-03-27T22:26:48.634Z,1012.14
2023-03-27T22:29:55.816Z,1012.13
2023-03-27T22:33:03.794Z,1012.11
2023-03-27T22:36:12.853Z,1012.20
2023-03-27T22:39:20.003Z,1012.10
2023-03-27T22:42:27.764Z,1012.22
2023-03-27T22:45:37.153Z,1012.14
2023-03-27T22:48:44.173Z,1012.25
2023-03-27T22:51:52.566Z,1012.30
2023-03-27T22:55:01.610Z,1012.25
2023-03-27T22:58:08.710Z,1012.47
2023-03-27T23:01:16.506Z,1012.41
2023-03-27T23:04:25.526Z,1012.42
2023-03-27T23:07:32.923Z,1012.33
2023-03-27T23:10:40.544Z,1012.52
2023-03-27T23:13:48.325Z,1012.44
2023-03-27T23:16:57.119Z,1012.56
2023-03-27T23:20:04.930Z,1012.50
2023-03-27T23:23:12.400Z,1012.52
2023-03-27T23:26:21.238Z,1012.60
2023-03-27T23:29:28.548Z,1012.74
2023-03-27T23:32:36.166Z,1012.71
2023-03-27T23:35:44.898Z,1012.70
2023-03-27T23:38:52.207Z,1012.78
2023-03-27T23:41:59.930Z,1012.82
2023-03-27T23:45:08.769Z,1012.78
2023-03-27T23:48:16.162Z,1012.83
2023-03-27T23:51:23.942Z,1012.89
2023-03-27T23:54:31.231Z,1013.01
2023-03-27T23:57:39.683Z,1013.05
